createdAt,value
2024-03-14T00:02:13.182Z,16.98
2024-03-14T00:05:16.933Z,19.25
2024-03-14T00:08:19.843Z,17.40
2024-03-14T00:11:22.659Z,20.33
2024-03-14T00:14:25.364Z,20.40
2024-03-14T00:17:28.077Z,16.33
2024-03-14T00:20:30.807Z,16.70
2024-03-14T00:23:33.441Z,18.17
2024-03-14T00:26:36.103Z,19.08
2024-03-14T00:29:38.770Z,16.52
2024-03-14T00:32:41.484Z,19.60
2024-03-14T00:35:44.192Z,16.55
2024-03-14T00:38:47.782Z,17.90
2024-03-14T00:41:51.413Z,19.65
2024-03-14T00:44:54.134Z,19.90
2024-03-14T00:47:57.544Z,17.25
2024-03-14T00:51:00.660Z,17.30
2024-03-14T00:54:05.655Z,16.58
2024-03-14T00:57:08.440Z,18.77
2024-03-14T01:00:14.316Z,17.88
2024-03-14T01:03:18.355Z,17.50
2024-03-14T01:06:21.760Z,15.45
2024-03-14T01:09:26.920Z,15.45
2024-03-14T01:12:29.886Z,16.05
2024-03-14T01:15:32.580Z,15.98
2024-03-14T01:18:35.620Z,17.60
2024-03-14T01:21:38.955Z,16.67
2024-03-14T01:24:41.743Z,15.55
2024-03-14T01:27:44.770Z,15.30
2024-03-14T01:30:47.509Z,19.20
2024-03-14T01:33:51.560Z,19.50
2024-03-14T01:36:54.264Z,16.65
2024-03-14T01:39:57.226Z,14.80
2024-03-14T01:42:59.903Z,15.50
2024-03-14T01:46:03.752Z,16.00
2024-03-14T01:49:07.239Z,18.30
2024-03-14T01:52:10.006Z,21.95
2024-03-14T01:55:12.791Z,17.63
2024-03-14T01:58:16.421Z,15.60
2024-03-14T02:01:19.169Z,17.13
2024-03-14T02:04:21.882Z,19.70
2024-03-14T02:07:24.870Z,19.67
2024-03-14T02:10:27.723Z,19.17
2024-03-14T02:13:30.703Z,20.42
2024-03-14T02:16:33.519Z,18.65
2024-03-14T02:19:37.315Z,21.63
2024-03-14T02:22:40.417Z,28.38
2024-03-14T02:25:44.072Z,23.88
2024-03-14T02:28:47.044Z,24.80
2024-03-14T02:31:52.351Z,25.45
2024-03-14T02:34:55.045Z,23.25
2024-03-14T02:37:57.710Z,28.30
2024-03-14T02:41:00.387Z,22.27
2024-03-14T02:44:03.254Z,23.38
2024-03-14T02:47:08.563Z,22.65
2024-03-14T02:50:11.336Z,25.30
2024-03-14T02:53:14.904Z,28.95
2024-03-14T02:56:17.572Z,23.42
2024-03-14T02:59:20.372Z,26.23
2024-03-14T03:02:23.900Z,23.90
2024-03-14T03:05:26.865Z,27.05
2024-03-14T03:08:29.555Z,24.67
2024-03-14T03:11:33.376Z,24.70
2024-03-14T03:14:36.888Z,25.58
2024-03-14T03:17:41.044Z,24.65
2024-03-14T03:20:43.805Z,26.15
2024-03-14T03:23:46.493Z,24.27
2024-03-14T03:26:48.268Z,26.08
2024-03-14T03:32:53.657Z,23.73
2024-03-14T03:35:56.471Z,24.52
2024-03-14T03:38:58.365Z,24.50
2024-03-14T03:42:01.313Z,26.20
2024-03-14T03:45:10.762Z,28.13
2024-03-14T03:48:13.608Z,26.30
2024-03-14T03:51:15.471Z,25.58
2024-03-14T03:57:21.785Z,30.40
2024-03-14T04:03:41.494Z,26.98
2024-03-14T04:06:43.332Z,27.90
2024-03-14T04:12:49.912Z,28.17
2024-03-14T04:18:55.590Z,32.25
2024-03-14T04:21:59.576Z,33.35
2024-03-14T04:25:04.665Z,32.72
2024-03-14T04:28:09.365Z,31.23
2024-03-14T04:31:12.320Z,30.60
2024-03-14T04:34:15.619Z,29.67
2024-03-14T04:37:18.377Z,37.85
2024-03-14T04:40:21.742Z,41.38
2024-03-14T04:43:26.432Z,42.22
2024-03-14T04:46:29.133Z,38.30
2024-03-14T04:49:33.175Z,33.88
2024-03-14T04:52:35.997Z,37.88
2024-03-14T04:55:40.661Z,44.92
2024-03-14T04:58:43.329Z,37.47
2024-03-14T05:01:46.718Z,41.72
2024-03-14T05:04:49.496Z,37.33
2024-03-14T05:07:52.249Z,40.60
2024-03-14T05:10:55.013Z,40.35
2024-03-14T05:13:58.588Z,40.85
2024-03-14T05:17:01.324Z,43.83
2024-03-14T05:20:05.997Z,48.40
2024-03-14T05:23:08.714Z,40.95
2024-03-14T05:26:11.998Z,44.35
2024-03-14T05:29:14.858Z,42.05
2024-03-14T05:32:21.867Z,50.90
2024-03-14T05:35:24.525Z,43.33
2024-03-14T05:38:27.184Z,43.25
2024-03-14T05:41:30.493Z,45.10
2024-03-14T05:44:33.165Z,45.97
2024-03-14T05:47:36.910Z,43.90
2024-03-14T05:50:40.202Z,47.00
2024-03-14T05:53:43.802Z,42.85
2024-03-14T05:56:46.541Z,42.97
2024-03-14T05:59:52.606Z,47.78
2024-03-14T06:02:55.347Z,48.63
2024-03-14T06:05:58.449Z,53.95
2024-03-14T06:09:01.165Z,54.85
2024-03-14T06:12:06.309Z,59.35
2024-03-14T06:15:10.292Z,52.20
2024-03-14T06:18:13.314Z,48.97
2024-03-14T06:21:16.079Z,50.90
2024-03-14T06:24:19.099Z,51.42
2024-03-14T06:27:21.798Z,51.80
2024-03-14T06:30:26.054Z,47.33
2024-03-14T06:33:29.712Z,58.95
2024-03-14T06:36:32.499Z,53.28
2024-03-14T06:39:38.707Z,51.85
2024-03-14T06:42:42.445Z,64.95
2024-03-14T06:45:45.421Z,48.78
2024-03-14T06:48:48.209Z,51.13
2024-03-14T06:51:51.599Z,50.58
2024-03-14T06:54:55.766Z,52.67
2024-03-14T06:57:58.464Z,54.92
2024-03-14T07:01:01.200Z,49.70
2024-03-14T07:04:03.949Z,54.03
2024-03-14T07:07:06.617Z,56.60
2024-03-14T07:10:10.205Z,51.70
2024-03-14T07:13:13.470Z,55.75
2024-03-14T07:16:17.287Z,48.28
2024-03-14T07:19:22.636Z,55.90
2024-03-14T07:22:26.294Z,54.85
2024-03-14T07:25:29.032Z,48.35
2024-03-14T07:28:33.040Z,53.92
2024-03-14T07:31:35.860Z,57.13
2024-03-14T07:34:38.608Z,52.08
2024-03-14T07:37:41.271Z,59.63
2024-03-14T07:40:44.430Z,59.00
2024-03-14T07:43:47.666Z,56.05
2024-03-14T07:46:51.596Z,61.30
2024-03-14T07:49:54.331Z,56.88
2024-03-14T07:52:57.869Z,51.75
2024-03-14T07:56:00.569Z,55.83
2024-03-14T07:59:03.449Z,56.80
2024-03-14T08:02:08.471Z,56.97
2024-03-14T08:05:12.794Z,58.65
2024-03-14T08:08:22.537Z,61.55
2024-03-14T08:11:30.386Z,55.55
2024-03-14T08:14:34.846Z,64.57
2024-03-14T08:17:37.542Z,60.40
2024-03-14T08:20:40.986Z,57.70
2024-03-14T08:23:43.717Z,62.50
2024-03-14T08:26:48.372Z,58.72
2024-03-14T08:29:51.276Z,59.22
2024-03-14T08:32:54.851Z,63.22
2024-03-14T08:35:58.425Z,54.38
2024-03-14T08:39:01.652Z,57.60
2024-03-14T08:42:06.160Z,51.63
2024-03-14T08:45:11.041Z,51.80
2024-03-14T08:48:13.861Z,51.42
2024-03-14T08:51:16.720Z,45.78
2024-03-14T08:54:35.266Z,46.33
2024-03-14T08:57:38.164Z,39.47
2024-03-14T09:00:41.257Z,39.10
2024-03-14T09:03:44.193Z,39.00
2024-03-14T09:06:46.970Z,36.08
2024-03-14T09:09:50.427Z,34.80
2024-03-14T09:12:53.723Z,30.02
2024-03-14T09:15:56.464Z,32.53
2024-03-14T09:18:59.215Z,31.52
2024-03-14T09:22:02.545Z,31.98
2024-03-14T09:25:08.095Z,33.38
2024-03-14T09:28:12.667Z,29.20
2024-03-14T09:31:15.385Z,27.35
2024-03-14T09:34:18.928Z,32.28
2024-03-14T09:37:26.336Z,30.90
2024-03-14T09:40:29.219Z,27.50
2024-03-14T09:43:31.930Z,28.50
2024-03-14T09:46:35.488Z,28.02
2024-03-14T09:49:38.168Z,27.63
2024-03-14T09:52:40.859Z,30.20
2024-03-14T09:55:43.606Z,25.48
2024-03-14T09:58:46.305Z,30.63
2024-03-14T10:01:50.716Z,30.48
2024-03-14T10:04:53.389Z,28.92
2024-03-14T10:07:56.959Z,29.83
2024-03-14T10:10:59.686Z,28.25
2024-03-14T10:14:07.917Z,28.50
2024-03-14T10:17:11.982Z,27.02
2024-03-14T10:20:15.893Z,28.75
2024-03-14T10:23:19.677Z,27.98
2024-03-14T10:26:23.816Z,29.95
2024-03-14T10:29:30.248Z,31.80
2024-03-14T10:32:33.160Z,25.73
2024-03-14T10:35:35.940Z,27.40
2024-03-14T10:38:38.848Z,29.58
2024-03-14T10:41:42.664Z,25.38
2024-03-14T10:44:45.362Z,26.33
2024-03-14T10:47:50.379Z,26.00
2024-03-14T10:50:55.766Z,22.90
2024-03-14T10:53:58.618Z,24.20
2024-03-14T10:57:01.366Z,23.40
2024-03-14T11:00:05.214Z,21.67
2024-03-14T11:03:08.035Z,23.00
2024-03-14T11:06:11.849Z,24.67
2024-03-14T11:09:15.054Z,19.27
2024-03-14T11:12:18.032Z,17.60
2024-03-14T11:15:22.790Z,18.30
2024-03-14T11:18:26.634Z,17.88
2024-03-14T11:21:32.934Z,18.02
2024-03-14T11:24:35.935Z,20.20
2024-03-14T11:27:38.826Z,17.05
2024-03-14T11:30:44.214Z,15.32
2024-03-14T11:33:47.199Z,16.15
2024-03-14T11:36:52.100Z,18.90
2024-03-14T11:39:54.912Z,16.80
2024-03-14T11:42:58.060Z,13.68
2024-03-14T11:46:00.777Z,13.68
2024-03-14T11:49:16.117Z,12.80
2024-03-14T11:52:19.076Z,12.35
2024-03-14T11:55:22.380Z,14.63
2024-03-14T11:58:25.245Z,11.30
2024-03-14T12:01:40.986Z,10.88
2024-03-14T12:04:50.002Z,11.23
2024-03-14T12:07:55.813Z,11.20
2024-03-14T12:10:59.639Z,13.73
2024-03-14T12:14:03.525Z,13.27
2024-03-14T12:17:06.539Z,13.40
2024-03-14T12:20:12.272Z,10.38
2024-03-14T12:23:15.172Z,11.00
2024-03-14T12:26:18.803Z,12.57
2024-03-14T12:29:22.508Z,9.93
2024-03-14T12:32:25.579Z,12.55
2024-03-14T12:35:29.120Z,10.02
2024-03-14T12:38:31.836Z,11.30
2024-03-14T12:41:35.004Z,10.45
2024-03-14T12:44:37.948Z,10.40
2024-03-14T12:47:40.630Z,11.80
2024-03-14T12:50:44.047Z,9.48
2024-03-14T12:53:55.313Z,12.07
2024-03-14T12:56:58.067Z,13.77
2024-03-14T13:00:00.960Z,11.63
2024-03-14T13:03:03.790Z,11.93
2024-03-14T13:06:06.805Z,10.73
2024-03-14T13:09:15.721Z,12.45
2024-03-14T13:12:19.780Z,9.93
2024-03-14T13:15:24.287Z,10.18
2024-03-14T13:18:28.532Z,11.85
2024-03-14T13:21:44.474Z,13.23
2024-03-14T13:24:51.025Z,10.27
2024-03-14T13:27:53.831Z,10.68
2024-03-14T13:30:56.546Z,8.63
2024-03-14T13:34:01.091Z,12.38
2024-03-14T13:37:04.443Z,11.68
2024-03-14T13:43:24.559Z,10.73
2024-03-14T13:46:32.714Z,9.32
2024-03-14T13:49:38.980Z,7.47
2024-03-14T13:52:42.193Z,7.32
2024-03-14T13:55:45.106Z,9.80
2024-03-14T13:58:48.014Z,9.32
2024-03-14T14:01:50.735Z,10.82
2024-03-14T14:04:53.570Z,10.70
2024-03-14T14:08:01.647Z,16.60
2024-03-14T14:11:05.181Z,11.13
2024-03-14T14:14:08.953Z,12.77
2024-03-14T14:17:12.004Z,11.65
2024-03-14T14:20:18.195Z,12.07
2024-03-14T14:23:21.510Z,11.80
2024-03-14T14:26:24.429Z,9.35
2024-03-14T14:29:27.281Z,11.18
2024-03-14T14:32:30.651Z,9.95
2024-03-14T14:35:33.402Z,12.15
2024-03-14T14:38:37.278Z,11.40
2024-03-14T14:41:39.976Z,12.65
2024-03-14T14:44:42.747Z,11.90
2024-03-14T14:47:46.457Z,10.60
2024-03-14T14:50:49.253Z,14.10
2024-03-14T14:53:53.149Z,14.23
2024-03-14T14:56:55.920Z,14.52
2024-03-14T14:59:58.895Z,11.43
2024-03-14T15:03:03.737Z,11.65
2024-03-14T15:06:07.191Z,13.43
2024-03-14T15:09:10.420Z,13.02
2024-03-14T15:12:13.279Z,12.65
2024-03-14T15:15:22.881Z,12.38
2024-03-14T15:18:25.731Z,13.82
2024-03-14T15:21:28.753Z,13.55
2024-03-14T15:24:32.999Z,16.65
2024-03-14T15:27:38.082Z,13.15
2024-03-14T15:30:42.407Z,13.05
2024-03-14T15:33:45.491Z,14.00
2024-03-14T15:36:48.373Z,11.68
2024-03-14T15:39:51.192Z,12.65
2024-03-14T15:42:53.881Z,12.15
2024-03-14T15:45:56.559Z,12.80
2024-03-14T15:48:59.288Z,13.77
2024-03-14T15:52:03.969Z,11.10
2024-03-14T15:55:07.936Z,12.00
2024-03-14T15:58:10.785Z,12.05
2024-03-14T16:01:14.908Z,9.35
2024-03-14T16:04:18.052Z,11.38
2024-03-14T16:07:20.732Z,11.60
2024-03-14T16:10:24.337Z,9.88
2024-03-14T16:13:27.036Z,9.57
2024-03-14T16:16:29.845Z,11.52
2024-03-14T16:19:32.755Z,10.80
2024-03-14T16:22:35.634Z,11.73
2024-03-14T16:25:39.563Z,10.32
2024-03-14T16:28:44.189Z,8.48
2024-03-14T16:31:47.097Z,12.38
2024-03-14T16:34:50.248Z,12.02
2024-03-14T16:37:52.931Z,10.07
2024-03-14T16:40:55.638Z,10.40
2024-03-14T16:43:59.526Z,8.38
2024-03-14T16:47:02.234Z,10.80
2024-03-14T16:50:05.148Z,12.40
2024-03-14T16:53:11.783Z,8.32
2024-03-14T16:56:14.600Z,9.35
2024-03-14T16:59:18.241Z,7.40
2024-03-14T17:02:21.078Z,7.93
2024-03-14T17:05:23.841Z,7.07
2024-03-14T17:08:26.484Z,8.48
2024-03-14T17:11:29.221Z,7.90
2024-03-14T17:14:33.272Z,7.50
2024-03-14T17:17:36.082Z,8.35
2024-03-14T17:20:38.898Z,8.63
2024-03-14T17:23:42.378Z,8.50
2024-03-14T17:26:45.421Z,6.60
2024-03-14T17:29:48.538Z,7.03
2024-03-14T17:32:52.224Z,6.32
2024-03-14T17:35:57.071Z,7.97
2024-03-14T17:38:59.875Z,8.00
2024-03-14T17:42:02.703Z,5.82
2024-03-14T17:45:06.536Z,6.35
2024-03-14T17:48:10.681Z,5.03
2024-03-14T17:51:13.727Z,7.97
2024-03-14T17:54:18.761Z,6.32
2024-03-14T17:57:21.583Z,7.05
2024-03-14T18:00:26.561Z,6.57
2024-03-14T18:03:29.352Z,5.10
2024-03-14T18:06:33.345Z,5.35
2024-03-14T18:09:37.595Z,7.80
2024-03-14T18:12:41.116Z,6.05
2024-03-14T18:15:44.089Z,8.02
2024-03-14T18:18:46.969Z,6.05
2024-03-14T18:21:50.421Z,7.72
2024-03-14T18:24:53.952Z,7.75
2024-03-14T18:27:56.715Z,6.13
2024-03-14T18:31:01.867Z,8.43
2024-03-14T18:34:04.742Z,8.30
2024-03-14T18:37:07.843Z,5.60
2024-03-14T18:40:11.041Z,6.80
2024-03-14T18:43:14.712Z,10.10
2024-03-14T18:46:18.302Z,9.05
2024-03-14T18:49:23.941Z,10.57
2024-03-14T18:52:26.712Z,11.25
2024-03-14T18:55:29.592Z,10.25
2024-03-14T18:58:32.348Z,11.43
2024-03-14T19:01:35.144Z,12.45
2024-03-14T19:04:37.836Z,11.73
2024-03-14T19:07:41.171Z,12.02
2024-03-14T19:10:43.975Z,14.60
2024-03-14T19:13:47.476Z,14.38
2024-03-14T19:16:50.386Z,10.98
2024-03-14T19:19:53.739Z,12.52
2024-03-14T19:22:56.501Z,10.77
2024-03-14T19:25:59.637Z,13.65
2024-03-14T19:29:02.451Z,13.65
2024-03-14T19:32:06.874Z,13.38
2024-03-14T19:35:11.675Z,13.45
2024-03-14T19:38:14.460Z,12.15
2024-03-14T19:41:17.284Z,14.77
2024-03-14T19:44:19.986Z,11.88
2024-03-14T19:47:22.655Z,12.60
2024-03-14T19:50:26.808Z,11.95
2024-03-14T19:53:30.622Z,13.63
2024-03-14T19:56:33.334Z,15.00
2024-03-14T19:59:37.829Z,13.38
2024-03-14T20:02:41.905Z,18.05
2024-03-14T20:05:45.333Z,12.73
2024-03-14T20:08:48.717Z,18.98
2024-03-14T20:11:53.249Z,15.00
2024-03-14T20:14:57.881Z,13.82
2024-03-14T20:18:01.289Z,13.52
2024-03-14T20:21:04.203Z,13.45
2024-03-14T20:24:08.028Z,16.42
2024-03-14T20:27:12.740Z,17.40
2024-03-14T20:30:15.999Z,13.63
2024-03-14T20:33:18.967Z,15.20
2024-03-14T20:36:22.346Z,15.90
2024-03-14T20:39:25.951Z,17.15
2024-03-14T20:42:32.969Z,14.20
2024-03-14T20:45:36.498Z,17.50
2024-03-14T20:48:40.183Z,15.23
2024-03-14T20:51:44.739Z,17.73
2024-03-14T20:54:47.518Z,17.23
2024-03-14T20:57:52.217Z,16.83
2024-03-14T21:00:55.349Z,15.90
2024-03-14T21:03:58.713Z,18.80
2024-03-14T21:07:01.635Z,17.48
2024-03-14T21:10:05.542Z,14.55
2024-03-14T21:13:12.000Z,14.85
2024-03-14T21:16:18.563Z,19.88
2024-03-14T21:19:21.298Z,18.45
2024-03-14T21:22:26.402Z,14.70
2024-03-14T21:25:29.736Z,20.75
2024-03-14T21:28:33.957Z,17.25
2024-03-14T21:31:36.943Z,16.45
2024-03-14T21:34:39.789Z,16.85
2024-03-14T21:37:42.509Z,15.20
2024-03-14T21:40:45.915Z,18.45
2024-03-14T21:43:48.612Z,17.33
2024-03-14T21:46:52.073Z,17.23
2024-03-14T21:49:54.802Z,16.08
2024-03-14T21:52:57.790Z,15.48
2024-03-14T21:56:00.631Z,17.63
2024-03-14T21:59:04.197Z,24.10
2024-03-14T22:02:09.542Z,21.33
2024-03-14T22:05:12.369Z,18.27
2024-03-14T22:08:20.555Z,17.75
2024-03-14T22:11:23.256Z,17.02
2024-03-14T22:14:26.228Z,21.00
2024-03-14T22:17:29.018Z,18.48
2024-03-14T22:20:31.697Z,16.67
2024-03-14T22:23:34.449Z,17.45
2024-03-14T22:26:37.123Z,18.83
2024-03-14T22:29:39.810Z,16.35
2024-03-14T22:32:42.517Z,14.05
2024-03-14T22:35:46.300Z,17.10
2024-03-14T22:38:49.082Z,17.67
2024-03-14T22:41:52.368Z,17.63
2024-03-14T22:44:55.040Z,17.90
2024-03-14T22:47:57.728Z,16.50
2024-03-14T22:51:00.462Z,17.15
2024-03-14T22:54:03.648Z,17.75
2024-03-14T22:57:07.999Z,17.17
2024-03-14T23:00:33.048Z,15.20
2024-03-14T23:03:35.758Z,16.75
2024-03-14T23:06:38.458Z,13.45
2024-03-14T23:09:41.472Z,16.92
2024-03-14T23:12:44.422Z,19.08
2024-03-14T23:15:47.426Z,15.63
2024-03-14T23:18:50.240Z,17.38
2024-03-14T23:21:53.737Z,16.65
2024-03-14T23:24:56.411Z,17.23
2024-03-14T23:27:59.439Z,17.48
2024-03-14T23:31:02.381Z,19.95
2024-03-14T23:34:05.130Z,19.05
2024-03-14T23:37:08.438Z,17.42
2024-03-14T23:40:13.524Z,19.88
2024-03-14T23:43:16.198Z,22.35
2024-03-14T23:46:19.990Z,18.77
2024-03-14T23:49:22.655Z,17.17
2024-03-14T23:52:25.676Z,19.10
2024-03-14T23:55:29.059Z,18.77
2024-03-14T23:58:32.335Z,19.02
